NCAR-RAP Real-Time Weather Data

Output produced by METARs form (10 April 2020  07:23 UTC)
found at http://weather.rap.ucar.edu/surface/
 
KEKN 100651Z AUTO 27010G21KT 220V300 10SM SCT030 BKN038 BKN046 02/M04 A2965 RMK AO2 SLP054 T00221044